สรุปผลการค้นหา 1 ถึง 8 จากทั้งหมด 8

กระทู้: ข่าวอากาศ

  1. #1

    มาตรฐาน ข่าวอากาศ

    อ่านข่าวอากาศ
    http://www.aeromet.tmd.go.th/default.asp

  2. #2

  3. #3
    ชาวร็อค รูปส่วนตัว ★โต้ ชาวร็อค★
    สมัครเมื่อ
    15 Jan 2010
    ที่อยู่
    เขื่อนแม่กวงอุดมธารา
    โพสต์
    2,600

    มาตรฐาน

    ขอบคุณมากคร้าบพี่หมู


  4. #4
    บุคคลทั่วไป
    Guest

    Wink

    ข่าวอากาศล่วงหน้า TAF สำหรับ ปีนัง

    TAF WMKP 031500Z 0318/0418 16005KT 7000 FEW020 SCT140 BKN260

    ข่าวอากาศล่วงหน้า TAF สำหรับ เชียงใหม่

    TAF VTCC 031700Z 0318/0424 VRB03KT 9999 SCT035 SCT110
    TEMPO 04 08/0412 VRB10G20KT 5000 TSRA FEW020CB BKN030

    จะเห็นว่า ช่วงเวลาออกข่าว ต่างกัน 2 ชม.WMKP 031500Z - 031700Z VTCC เชียงใหม่ออกทีหลัง
    ...คำพยากรณ์ของWMKP ควบคุม 24 ชม.ระหว่างเวลาตีสองเมืองไทย วันที่ 4 ส.ค.ไปถึง เวลาตีสองเมืองไทย วันที่ 5 ส.ค.0318/0418

    ...แต่คำพยากรณ์ของVTCC ควบคุม 36ชม.ระหว่างเวลาตีหนึ่งเมืองไทย วันที่ 4 ส.ค.ไปถึง เวลาเจ้ดโมงเช้าเมืองไทย วันที่ 5 ส.ค.0318/0424
    ....ต้องนำความรู้เรื่องการ บวก-ลบ ZULU time LOCAL Time มาใช้ด้วย
    ....สมัยก่อน TAF พยากรณ์ล่วงหน้าได้ประมาณ 12 ชม. แต่ปัจจุบันได้ถึง 36 ชม.

    คงพอเช้าใจ เจอกันวันนี้ที่ CNX 2000L

  5. #5
    บุคคลทั่วไป
    Guest

    Smile

    metar ที่เชียงใหม่
    2011/08/04 00:30 VTCC 040030Z 21002KT 9999 SCT040 25/21 Q1010 A2983
    สภาพอากาศเมื่อเวลา หกโมงครึ่ง จะเห็นว่า เขารายงาน QHN และ TEMP มาด้วย เพราะเป็นอากาศที่เกิดขึ้นแล้ว มิใช่คำพยากรณ์ จึงมี ค่าความกดอากาศ และอุณหภูมิ มาให้ด้วย

    ....โต้ ..ช่วยส่ง Password ของ Skypig มาให้ ใน email อีกครั้ง

  6. #6
    ชาวร็อค รูปส่วนตัว ★โต้ ชาวร็อค★
    สมัครเมื่อ
    15 Jan 2010
    ที่อยู่
    เขื่อนแม่กวงอุดมธารา
    โพสต์
    2,600

    มาตรฐาน

    ผมส่ง password ไปที่เมล์พี่หมูเรียบร้อยแล้วนะครับพี่


  7. #7
    Member
    สมัครเมื่อ
    05 Aug 2010
    ที่อยู่
    Bangkok
    โพสต์
    40

    มาตรฐาน

    เป็นอีก Website นึงครับ สำหรับข่าวอากาศ
    http://weather.noaa.gov/weather/coded.html





    "ถึงผมจะเดินช้า....แต่ผมก็ไม่เคยเดินถอยหลัง"

  8. #8
    Banned
    สมัครเมื่อ
    01 Apr 2010
    ที่อยู่
    VTBL
    โพสต์
    484

    มาตรฐาน

    ขอบคุณมากครับ แทน

กฎการโพสต์ข้อความ

  • คุณ ไม่สามารถ ตั้งกระทู้ใหม่ได้
  • คุณ ไม่สามารถ ตอบกระทู้ได้
  • คุณ ไม่สามารถ แนบไฟล์ได้
  • คุณ ไม่สามารถ แก้ไขข้อความโพสต์ได้
  •  
  • BB code สถานะ เปิด
  • Smilies สถานะ เปิด
  • [IMG] สถานะ เปิด
  • [VIDEO] สถานะ เปิด
  • HTML สถานะ ปิด